Time;durP1;ratioP1;P1;durP2;ratioP2;P2;SDS_P1;SDS_P2;PMS_P1;PMS_P2;Temp;Humidity;BMP_temperature;BMP_pressure;BME280_temperature;BME280_humidity;BME280_pressure;Samples;Min_cycle;Max_cycle;Signal;HPM_P1;HPM_P2
2021/07/27 00:01:12;;;;;;;2.77;1.80;;;21.50;99.90;;;;;;4991241;28;20187;-76
2021/07/27 00:03:39;;;;;;;3.97;1.50;;;21.40;99.90;;;;;;4974874;28;20266;-75
2021/07/27 00:06:06;;;;;;;2.93;1.57;;;21.30;99.90;;;;;;4974908;28;20578;-76
2021/07/27 00:08:35;;;;;;;2.90;1.87;;;21.30;99.90;;;;;;4991954;28;20566;-76
2021/07/27 00:11:01;;;;;;;1.70;1.33;;;21.30;99.90;;;;;;4992383;28;20987;-76
2021/07/27 00:13:27;;;;;;;2.50;1.70;;;21.20;99.90;;;;;;4991574;28;20618;-76
2021/07/27 00:15:53;;;;;;;2.33;1.70;;;21.20;99.90;;;;;;4996370;28;20929;-75
2021/07/27 00:18:19;;;;;;;2.23;1.60;;;21.10;99.90;;;;;;4991802;28;20914;-75
2021/07/27 00:20:45;;;;;;;3.13;1.67;;;21.10;99.90;;;;;;4992272;28;20609;-76
2021/07/27 00:23:11;;;;;;;1.77;1.50;;;21.10;99.90;;;;;;4974835;28;20225;-76
2021/07/27 00:25:40;;;;;;;2.00;1.70;;;21.00;99.90;;;;;;4974694;28;20566;-75
2021/07/27 00:28:05;;;;;;;3.00;1.47;;;21.00;99.90;;;;;;4992003;28;20609;-76
2021/07/27 00:30:31;;;;;;;2.03;1.70;;;21.00;99.90;;;;;;4974533;28;20626;-76
2021/07/27 00:32:57;;;;;;;2.50;1.90;;;21.00;99.90;;;;;;4974744;28;20167;-75
2021/07/27 00:35:24;;;;;;;2.87;1.80;;;21.00;99.90;;;;;;4992075;28;20593;-75
2021/07/27 00:37:58;;;;;;;1.80;1.47;;;20.90;99.90;;;;;;4991928;28;20167;-75
2021/07/27 00:40:23;;;;;;;2.70;2.10;;;20.90;99.90;;;;;;4992157;28;20982;-75
2021/07/27 00:42:49;;;;;;;3.30;1.80;;;20.90;99.90;;;;;;4992193;28;20574;-75
2021/07/27 00:45:16;;;;;;;2.47;1.50;;;20.80;99.90;;;;;;4974417;28;20164;-75
2021/07/27 00:47:42;;;;;;;2.97;1.87;;;20.80;99.90;;;;;;4974296;28;20175;-75
2021/07/27 00:50:09;;;;;;;3.10;1.60;;;20.80;99.90;;;;;;4991738;28;20667;-76
2021/07/27 00:52:36;;;;;;;3.00;2.77;;;20.80;99.90;;;;;;4996429;28;20558;-75
2021/07/27 00:55:03;;;;;;;3.33;2.07;;;20.80;99.90;;;;;;4991885;28;20614;-76
2021/07/27 00:57:30;;;;;;;1.97;1.77;;;20.80;99.90;;;;;;4991889;28;20566;-75
2021/07/27 00:59:57;;;;;;;3.57;1.93;;;20.80;99.90;;;;;;4990386;28;20689;-76
2021/07/27 01:02:22;;;;;;;3.17;1.70;;;20.90;99.90;;;;;;4991900;28;20563;-75
2021/07/27 01:04:48;;;;;;;2.13;1.93;;;20.90;99.90;;;;;;4991820;28;20728;-76
2021/07/27 01:07:14;;;;;;;2.73;1.83;;;20.90;99.90;;;;;;4991615;28;20167;-75
2021/07/27 01:09:40;;;;;;;2.20;1.83;;;20.90;99.90;;;;;;4991468;28;20217;-76
2021/07/27 01:12:06;;;;;;;1.87;1.60;;;20.90;99.90;;;;;;4991632;28;20574;-76
2021/07/27 01:14:32;;;;;;;2.47;1.60;;;21.00;99.90;;;;;;4991776;28;21327;-76
2021/07/27 01:16:58;;;;;;;2.50;1.70;;;21.00;99.90;;;;;;4974190;28;20585;-75
2021/07/27 01:19:39;;;;;;;3.83;1.90;;;21.00;99.90;;;;;;4991503;28;21133;-75
2021/07/27 01:43:48;;;;;;;3.80;2.10;;;20.70;99.90;;;;;;4977397;28;21162;-75
2021/07/27 01:46:15;;;;;;;3.77;1.97;;;20.70;99.90;;;;;;4994886;28;20581;-75
2021/07/27 01:48:42;;;;;;;2.90;2.50;;;20.60;99.90;;;;;;4977470;28;20661;-75
2021/07/27 01:51:07;;;;;;;4.00;1.87;;;20.60;99.90;;;;;;4994930;28;21052;-76
2021/07/27 01:53:34;;;;;;;3.40;2.30;;;20.60;99.90;;;;;;4977134;28;20741;-75
2021/07/27 01:56:00;;;;;;;2.70;2.40;;;20.60;99.90;;;;;;4994328;28;20175;-75
2021/07/27 01:58:26;;;;;;;2.70;2.37;;;20.60;99.90;;;;;;4994410;28;20569;-75
2021/07/27 02:00:52;;;;;;;2.77;2.00;;;20.60;99.90;;;;;;4994514;28;20948;-75
2021/07/27 02:03:18;;;;;;;2.67;2.37;;;20.60;99.90;;;;;;4994766;28;20262;-75
2021/07/27 02:05:44;;;;;;;2.40;2.07;;;20.60;99.90;;;;;;4983364;28;20946;-75
2021/07/27 02:08:11;;;;;;;5.97;1.83;;;20.60;99.90;;;;;;4977068;28;20598;-76
2021/07/27 02:10:38;;;;;;;3.10;1.80;;;20.60;99.90;;;;;;4994101;28;20725;-75
2021/07/27 02:13:12;;;;;;;2.63;1.60;;;20.60;99.90;;;;;;4994590;28;20614;-76
2021/07/27 02:15:44;;;;;;;3.60;2.10;;;20.60;99.90;;;;;;4976719;28;20570;-75
2021/07/27 02:18:11;;;;;;;2.23;2.03;;;20.50;99.90;;;;;;4976479;28;20917;-75
2021/07/27 02:20:37;;;;;;;2.77;2.10;;;20.60;99.90;;;;;;4994388;28;20602;-75
2021/07/27 02:23:05;;;;;;;2.80;1.97;;;20.50;99.90;;;;;;4976746;28;20673;-75
2021/07/27 02:25:31;;;;;;;3.63;2.83;;;20.60;99.90;;;;;;4976671;28;20590;-75
2021/07/27 02:27:57;;;;;;;2.17;1.90;;;20.60;99.90;;;;;;4976510;28;20641;-76
2021/07/27 02:30:29;;;;;;;3.13;1.87;;;20.60;99.90;;;;;;4993977;28;20606;-75
2021/07/27 02:32:55;;;;;;;5.00;2.67;;;20.60;99.90;;;;;;4993877;28;20578;-75
2021/07/27 02:35:39;;;;;;;3.80;2.10;;;20.60;99.90;;;;;;4976141;28;20578;-75
2021/07/27 02:38:05;;;;;;;4.90;2.13;;;20.60;99.90;;;;;;4993484;28;20186;-75
2021/07/27 02:40:34;;;;;;;3.70;2.70;;;20.60;99.90;;;;;;4990673;28;20832;-76
2021/07/27 02:43:02;;;;;;;2.67;2.47;;;20.60;99.90;;;;;;4972283;28;21027;-75
2021/07/27 02:45:28;;;;;;;4.37;2.07;;;20.60;99.90;;;;;;4992965;28;21156;-75
2021/07/27 02:47:54;;;;;;;4.30;2.90;;;20.60;99.90;;;;;;4963000;28;20606;-75
2021/07/27 02:50:19;;;;;;;3.03;2.67;;;20.50;99.90;;;;;;4980353;28;20627;-75
2021/07/27 02:52:45;;;;;;;4.60;2.73;;;20.50;99.90;;;;;;4993529;28;20179;-75
2021/07/27 02:55:12;;;;;;;3.50;2.80;;;20.40;99.90;;;;;;4991070;28;20179;-76
2021/07/27 02:57:38;;;;;;;3.93;2.67;;;20.40;99.90;;;;;;4980502;28;20591;-76
2021/07/27 03:00:06;;;;;;;3.10;2.90;;;20.30;99.90;;;;;;4989338;28;21165;-76
2021/07/27 03:02:39;;;;;;;3.47;2.60;;;20.30;99.90;;;;;;4988531;28;20593;-76
2021/07/27 03:05:06;;;;;;;2.53;2.33;;;20.30;99.90;;;;;;4989400;28;21190;-76
2021/07/27 03:10:18;;;;;;;3.67;2.60;;;20.20;99.90;;;;;;4937143;29;20627;-76
2021/07/27 03:12:53;;;;;;;2.50;2.20;;;20.20;99.90;;;;;;4937512;29;20684;-75
2021/07/27 03:15:26;;;;;;;2.60;2.40;;;20.10;99.90;;;;;;4937279;29;20622;-75
2021/07/27 03:17:57;;;;;;;2.63;2.43;;;20.10;99.90;;;;;;4958230;29;20623;-76
2021/07/27 03:20:24;;;;;;;3.17;2.00;;;20.10;99.90;;;;;;4937069;29;20611;-75
2021/07/27 03:22:50;;;;;;;2.90;2.20;;;20.10;99.90;;;;;;4937269;29;20934;-76
2021/07/27 03:25:18;;;;;;;3.97;2.73;;;20.10;99.90;;;;;;4937352;29;21215;-75
2021/07/27 03:27:45;;;;;;;2.20;1.90;;;20.10;99.90;;;;;;4953739;29;20623;-75
2021/07/27 03:30:17;;;;;;;2.80;2.40;;;20.10;99.90;;;;;;4954295;28;20607;-75
2021/07/27 03:32:45;;;;;;;2.57;2.03;;;20.10;99.90;;;;;;4954159;29;20604;-75
2021/07/27 03:35:15;;;;;;;3.03;2.37;;;20.10;99.90;;;;;;4937124;29;20580;-75
2021/07/27 03:37:40;;;;;;;3.00;2.00;;;20.00;99.90;;;;;;4953643;29;20577;-75
2021/07/27 03:40:07;;;;;;;2.10;1.90;;;20.00;99.90;;;;;;4954022;28;20651;-76
2021/07/27 03:42:33;;;;;;;4.17;2.20;;;19.90;99.90;;;;;;4953911;29;20235;-76
2021/07/27 03:44:59;;;;;;;2.97;2.10;;;19.90;99.90;;;;;;4954221;29;20576;-77
2021/07/27 03:47:26;;;;;;;6.60;2.30;;;19.90;99.90;;;;;;4952987;28;20168;-76
2021/07/27 03:49:53;;;;;;;2.60;2.40;;;19.90;99.90;;;;;;4953769;28;20592;-76
2021/07/27 03:52:19;;;;;;;2.60;2.40;;;19.90;99.90;;;;;;4953895;29;20615;-76
2021/07/27 03:54:45;;;;;;;4.10;2.50;;;19.90;99.90;;;;;;4942050;29;20742;-76
2021/07/27 03:57:11;;;;;;;3.27;2.30;;;19.90;99.90;;;;;;4936679;29;20165;-75
2021/07/27 03:59:36;;;;;;;3.40;2.27;;;19.90;99.90;;;;;;4953378;28;20168;-76
2021/07/27 04:02:02;;;;;;;3.60;2.50;;;19.90;99.90;;;;;;4953770;29;20172;-76
2021/07/27 04:04:32;;;;;;;2.97;2.17;;;19.80;99.90;;;;;;4953637;29;20227;-75
2021/07/27 04:06:57;;;;;;;3.30;2.80;;;19.80;99.90;;;;;;4936540;29;20626;-76
2021/07/27 04:09:25;;;;;;;2.80;2.60;;;19.80;99.90;;;;;;4953358;29;20579;-75
2021/07/27 04:11:51;;;;;;;4.27;2.63;;;19.80;99.90;;;;;;4953525;28;20207;-76
2021/07/27 04:14:16;;;;;;;4.57;3.30;;;19.80;99.90;;;;;;4936071;29;21149;-76
2021/07/27 04:16:42;;;;;;;2.83;2.50;;;19.80;99.90;;;;;;4936274;29;20572;-76
2021/07/27 04:19:08;;;;;;;3.37;2.77;;;19.90;99.90;;;;;;4953295;29;20180;-81
2021/07/27 04:21:34;;;;;;;2.80;2.40;;;19.90;99.90;;;;;;4936469;29;20223;-76
2021/07/27 04:24:01;;;;;;;3.83;2.60;;;20.00;99.90;;;;;;4936231;29;20180;-76
2021/07/27 04:26:30;;;;;;;2.97;2.60;;;20.10;99.90;;;;;;4953086;29;20585;-75
2021/07/27 04:28:56;;;;;;;1.70;1.60;;;20.10;99.90;;;;;;4952614;29;20568;-75
2021/07/27 04:31:22;;;;;;;5.00;2.40;;;20.20;99.90;;;;;;4957396;28;20595;-75
2021/07/27 04:33:48;;;;;;;2.50;2.23;;;20.30;99.90;;;;;;4953039;29;20712;-76
2021/07/27 04:36:14;;;;;;;3.17;2.10;;;20.40;99.90;;;;;;4935543;29;20567;-77
2021/07/27 04:38:40;;;;;;;5.13;2.20;;;20.40;99.90;;;;;;4919667;29;20580;-77
2021/07/27 04:41:10;;;;;;;2.23;1.90;;;20.50;99.90;;;;;;4935535;29;20184;-76
2021/07/27 04:43:36;;;;;;;5.00;2.10;;;20.60;99.90;;;;;;4953492;29;20572;-76
2021/07/27 04:46:06;;;;;;;3.73;1.87;;;20.60;99.90;;;;;;4953182;29;20571;-76
2021/07/27 04:48:32;;;;;;;2.43;1.67;;;20.70;99.90;;;;;;4953192;29;20564;-77
2021/07/27 04:50:59;;;;;;;3.87;1.87;;;20.80;99.90;;;;;;4953237;28;20632;-78
2021/07/27 04:53:26;;;;;;;3.07;2.10;;;20.90;99.90;;;;;;4954186;29;20619;-77
2021/07/27 04:55:52;;;;;;;2.13;1.93;;;21.00;99.90;;;;;;4920453;29;20572;-78
2021/07/27 04:58:19;;;;;;;2.60;1.70;;;21.00;99.90;;;;;;4953932;28;20563;-77
2021/07/27 05:00:44;;;;;;;1.83;1.63;;;21.10;99.90;;;;;;4956842;28;20620;-77
2021/07/27 05:03:10;;;;;;;2.10;1.70;;;21.20;99.90;;;;;;4957035;29;20634;-77
2021/07/27 05:05:36;;;;;;;2.73;2.20;;;21.20;99.90;;;;;;4957133;29;20568;-78
2021/07/27 05:08:02;;;;;;;2.20;1.47;;;21.20;99.90;;;;;;4961513;29;20168;-78
2021/07/27 05:10:28;;;;;;;2.10;1.63;;;21.20;99.90;;;;;;4957534;28;20223;-79
2021/07/27 05:12:54;;;;;;;2.80;2.07;;;21.30;99.90;;;;;;4956939;29;20611;-79
2021/07/27 05:15:20;;;;;;;3.13;2.13;;;21.30;99.90;;;;;;4939399;29;20976;-79
2021/07/27 05:17:47;;;;;;;2.30;1.40;;;21.30;99.90;;;;;;4956540;29;20643;-81
2021/07/27 05:20:13;;;;;;;2.53;2.10;;;21.30;99.90;;;;;;4956670;28;20699;-80
2021/07/27 05:22:38;;;;;;;2.77;2.00;;;21.40;99.90;;;;;;4923781;29;21206;-80
2021/07/27 05:25:05;;;;;;;3.67;2.00;;;21.40;99.90;;;;;;4939541;29;20576;-80
2021/07/27 05:27:35;;;;;;;3.37;2.10;;;21.50;99.90;;;;;;4965771;28;20652;-82
2021/07/27 05:30:01;;;;;;;3.57;2.40;;;21.50;99.90;;;;;;4976070;28;21024;-82
2021/07/27 05:32:27;;;;;;;2.27;2.07;;;21.50;99.90;;;;;;4976089;28;22156;-82
2021/07/27 05:34:53;;;;;;;3.60;3.07;;;21.50;99.90;;;;;;4958952;28;20646;-81
2021/07/27 05:37:19;;;;;;;3.57;2.20;;;21.60;99.90;;;;;;4977925;28;20255;-82
2021/07/27 05:39:45;;;;;;;5.63;2.10;;;21.60;99.90;;;;;;4975274;28;20574;-83
2021/07/27 05:42:11;;;;;;;2.53;2.17;;;21.70;99.90;;;;;;4974876;28;20678;-82
2021/07/27 05:44:37;;;;;;;2.80;2.30;;;21.70;99.90;;;;;;4976877;28;20579;-82
2021/07/27 05:47:03;;;;;;;3.50;2.47;;;21.70;99.90;;;;;;4976136;28;20563;-82
2021/07/27 05:49:30;;;;;;;3.13;2.10;;;21.70;99.90;;;;;;4957787;28;20304;-82
2021/07/27 05:51:56;;;;;;;5.50;2.57;;;21.80;99.90;;;;;;4958025;28;20603;-81
2021/07/27 05:54:23;;;;;;;3.20;2.53;;;21.90;99.90;;;;;;4957776;28;20978;-81
2021/07/27 05:56:51;;;;;;;2.93;2.57;;;22.00;99.90;;;;;;4975648;28;20243;-81
2021/07/27 05:59:17;;;;;;;3.20;2.40;;;22.10;99.90;;;;;;4975986;28;20629;-81
2021/07/27 06:01:43;;;;;;;3.73;3.23;;;22.20;99.90;;;;;;4978397;28;21484;-82
2021/07/27 06:04:09;;;;;;;3.93;2.70;;;22.20;99.90;;;;;;4979022;28;20618;-82
2021/07/27 06:06:36;;;;;;;3.17;2.87;;;22.30;99.90;;;;;;4978263;28;20593;-81
2021/07/27 06:09:07;;;;;;;4.67;3.30;;;22.30;99.90;;;;;;4979241;28;20578;-81
2021/07/27 06:11:34;;;;;;;3.77;3.23;;;22.30;99.90;;;;;;4993488;28;20617;-81
2021/07/27 06:14:01;;;;;;;4.20;3.80;;;22.40;99.90;;;;;;4998696;28;20613;-82
2021/07/27 06:16:28;;;;;;;3.03;2.73;;;22.50;99.90;;;;;;4980178;28;20585;-82
2021/07/27 06:18:53;;;;;;;3.03;2.40;;;22.70;99.90;;;;;;4978561;28;21135;-81
2021/07/27 06:21:19;;;;;;;3.27;3.00;;;23.00;99.90;;;;;;4979209;28;20624;-82
2021/07/27 06:23:45;;;;;;;3.80;2.77;;;23.40;99.90;;;;;;4995811;28;20230;-81
2021/07/27 06:26:11;;;;;;;3.07;2.70;;;23.80;99.90;;;;;;4961112;28;20170;-81
2021/07/27 06:28:37;;;;;;;3.27;2.70;;;24.00;99.90;;;;;;4994690;28;20580;-82
2021/07/27 06:31:10;;;;;;;3.83;3.47;;;24.30;99.90;;;;;;4976505;28;21177;-81
2021/07/27 06:33:40;;;;;;;6.03;2.60;;;24.50;99.90;;;;;;4977115;28;20623;-80
2021/07/27 06:36:06;;;;;;;4.20;2.77;;;24.60;99.90;;;;;;4989016;28;20577;-80
2021/07/27 06:38:32;;;;;;;3.20;2.90;;;24.50;99.90;;;;;;4977776;28;21074;-79
2021/07/27 06:40:58;;;;;;;3.37;3.07;;;24.50;99.90;;;;;;5000986;28;20671;-80
2021/07/27 06:43:24;;;;;;;4.57;3.50;;;24.50;99.90;;;;;;4998509;28;20570;-79
2021/07/27 06:45:54;;;;;;;4.93;2.63;;;24.40;99.90;;;;;;4995828;28;20645;-80
2021/07/27 06:48:21;;;;;;;3.37;3.07;;;24.40;99.90;;;;;;4976642;28;20677;-80
2021/07/27 06:50:47;;;;;;;3.03;2.73;;;24.40;99.90;;;;;;4993865;28;20598;-80
2021/07/27 06:53:12;;;;;;;4.20;3.50;;;24.40;99.90;;;;;;4993095;28;20642;-80
2021/07/27 06:55:38;;;;;;;4.70;2.33;;;24.30;99.90;;;;;;4959729;28;20241;-80
2021/07/27 06:58:04;;;;;;;3.30;3.00;;;24.20;99.90;;;;;;4979192;28;20179;-80
2021/07/27 07:00:29;;;;;;;3.67;3.27;;;24.10;99.90;;;;;;4995608;28;20241;-79
2021/07/27 07:02:55;;;;;;;4.40;3.37;;;24.10;99.90;;;;;;4975773;28;20257;-79
2021/07/27 07:05:21;;;;;;;2.63;2.40;;;24.10;99.90;;;;;;4974940;28;20185;-80
2021/07/27 07:07:46;;;;;;;4.07;3.20;;;24.00;99.90;;;;;;4992352;28;20167;-80
2021/07/27 07:10:12;;;;;;;4.13;3.73;;;24.00;99.90;;;;;;4974855;28;20765;-79
2021/07/27 07:12:38;;;;;;;3.10;2.70;;;24.00;99.90;;;;;;4992840;28;20203;-79
2021/07/27 07:15:05;;;;;;;2.90;2.27;;;24.00;99.90;;;;;;4996445;28;20632;-79
2021/07/27 07:17:31;;;;;;;3.10;2.83;;;24.00;99.90;;;;;;4994935;28;20195;-81
2021/07/27 07:19:57;;;;;;;7.57;3.10;;;23.90;99.90;;;;;;4980449;28;20605;-80
2021/07/27 07:22:24;;;;;;;3.20;2.63;;;23.90;99.90;;;;;;4981775;28;20570;-80
2021/07/27 07:24:51;;;;;;;3.00;2.70;;;24.00;99.90;;;;;;5000564;28;20566;-80
2021/07/27 07:27:17;;;;;;;3.60;2.50;;;24.00;99.90;;;;;;4971907;28;20574;-80
2021/07/27 07:29:43;;;;;;;5.10;4.33;;;24.10;99.90;;;;;;5002624;28;20582;-80
2021/07/27 07:32:09;;;;;;;3.33;3.03;;;24.30;99.90;;;;;;5000159;28;20674;-80
2021/07/27 07:34:36;;;;;;;2.67;2.43;;;24.40;99.90;;;;;;4966060;28;20941;-80
2021/07/27 07:37:03;;;;;;;4.73;3.20;;;24.90;99.90;;;;;;4983297;28;20570;-80
2021/07/27 07:39:30;;;;;;;2.87;2.57;;;25.50;99.90;;;;;;4994674;28;20570;-80
2021/07/27 07:41:58;;;;;;;2.97;2.67;;;26.00;99.90;;;;;;4960980;28;20598;-80
2021/07/27 07:44:24;;;;;;;3.27;2.80;;;26.50;99.90;;;;;;4993166;28;20612;-80
2021/07/27 07:46:51;;;;;;;3.83;2.83;;;26.90;99.90;;;;;;4976286;28;20952;-80
2021/07/27 07:49:16;;;;;;;3.27;2.70;;;27.30;99.90;;;;;;4992699;28;20574;-80
2021/07/27 07:51:47;;;;;;;3.43;3.00;;;27.80;99.90;;;;;;4995241;28;20621;-80
2021/07/27 07:54:13;;;;;;;3.40;3.00;;;28.30;99.90;;;;;;4977397;28;20221;-80
2021/07/27 07:56:43;;;;;;;3.63;2.90;;;28.90;99.90;;;;;;4977032;28;20563;-80
2021/07/27 07:59:09;;;;;;;3.40;3.10;;;29.20;99.90;;;;;;4994004;28;20570;-81
2021/07/27 08:01:34;;;;;;;2.90;2.60;;;29.90;99.90;;;;;;4981220;28;21227;-80
2021/07/27 08:04:00;;;;;;;3.40;3.10;;;30.40;99.90;;;;;;4998828;28;20163;-81
2021/07/27 08:06:27;;;;;;;2.80;2.60;;;30.80;99.90;;;;;;4977003;28;20319;-80
2021/07/27 08:08:52;;;;;;;2.93;2.63;;;31.40;99.90;;;;;;4977639;28;20581;-80
2021/07/27 08:11:18;;;;;;;3.20;2.73;;;31.60;99.90;;;;;;4979795;28;20626;-80
2021/07/27 08:13:44;;;;;;;2.63;2.43;;;31.90;99.90;;;;;;4960240;28;20274;-80
2021/07/27 08:16:10;;;;;;;4.73;3.90;;;32.30;99.90;;;;;;4974865;28;20179;-80
2021/07/27 08:18:36;;;;;;;3.70;3.40;;;32.70;99.90;;;;;;4991856;28;20169;-80
2021/07/27 08:21:04;;;;;;;3.93;3.03;;;32.80;99.90;;;;;;4974788;28;20654;-80
2021/07/27 08:23:29;;;;;;;3.30;3.00;;;33.00;99.90;;;;;;4974496;28;20607;-80
2021/07/27 08:25:55;;;;;;;3.70;3.40;;;33.10;99.80;;;;;;4992706;28;21140;-80
2021/07/27 08:28:21;;;;;;;3.97;3.60;;;33.30;99.00;;;;;;4992956;28;20607;-80
2021/07/27 08:30:47;;;;;;;3.77;3.47;;;33.30;97.90;;;;;;4978823;28;20240;-81
2021/07/27 08:33:13;;;;;;;4.60;3.60;;;33.40;97.60;;;;;;4996647;28;20580;-80
2021/07/27 08:35:39;;;;;;;3.03;2.73;;;33.50;97.10;;;;;;4997423;28;20192;-80
2021/07/27 08:38:05;;;;;;;5.10;3.40;;;33.70;96.70;;;;;;4999187;28;20940;-80
2021/07/27 08:40:35;;;;;;;3.10;2.80;;;33.70;96.00;;;;;;4982083;28;20195;-80
2021/07/27 08:43:02;;;;;;;3.57;2.80;;;33.70;95.40;;;;;;4997876;28;20595;-80
2021/07/27 08:45:29;;;;;;;4.10;3.80;;;33.50;94.30;;;;;;4980952;28;20586;-80
2021/07/27 08:47:55;;;;;;;3.60;3.30;;;33.20;92.90;;;;;;4997886;28;20570;-80
2021/07/27 08:50:21;;;;;;;4.07;3.77;;;32.80;92.40;;;;;;5001402;28;20595;-79
2021/07/27 08:52:47;;;;;;;3.97;3.67;;;32.30;91.60;;;;;;5000061;28;20591;-80
2021/07/27 08:55:14;;;;;;;4.00;2.90;;;31.90;92.10;;;;;;4999253;28;20706;-80
2021/07/27 08:57:59;;;;;;;2.77;2.43;;;31.80;93.20;;;;;;4980744;28;20669;-80
2021/07/27 09:00:27;;;;;;;3.83;3.53;;;32.10;94.10;;;;;;4996884;28;20661;-80
2021/07/27 09:02:53;;;;;;;3.73;3.33;;;32.50;94.30;;;;;;4980061;28;20572;-80
2021/07/27 09:05:20;;;;;;;3.33;2.70;;;33.10;94.40;;;;;;4979462;28;20938;-80
2021/07/27 09:07:46;;;;;;;4.27;2.90;;;33.50;94.00;;;;;;5000694;28;20605;-81
2021/07/27 09:10:22;;;;;;;4.00;3.30;;;33.90;92.40;;;;;;5006657;28;20640;-80
2021/07/27 09:12:59;;;;;;;3.93;3.53;;;34.00;91.50;;;;;;5000770;28;20619;-82
2021/07/27 09:15:30;;;;;;;3.13;2.83;;;33.80;90.60;;;;;;4981653;28;20622;-81
2021/07/27 09:17:58;;;;;;;6.90;4.00;;;33.70;90.00;;;;;;4995853;28;20962;-80
2021/07/27 09:20:34;;;;;;;4.30;3.90;;;33.50;88.50;;;;;;4978192;28;20699;-80
2021/07/27 09:23:01;;;;;;;4.50;3.73;;;33.00;87.80;;;;;;4995639;28;20598;-80
2021/07/27 09:25:29;;;;;;;4.67;4.27;;;32.40;86.60;;;;;;4979144;28;20571;-80
2021/07/27 09:28:08;;;;;;;4.40;3.00;;;31.70;86.50;;;;;;4995017;28;20565;-80
2021/07/27 09:30:36;;;;;;;4.33;3.83;;;31.20;88.20;;;;;;4977060;28;21208;-80
2021/07/27 09:33:04;;;;;;;4.13;3.80;;;30.70;88.60;;;;;;4995007;28;20577;-80
2021/07/27 09:35:29;;;;;;;4.37;3.00;;;30.20;89.70;;;;;;4994954;28;20610;-80
2021/07/27 09:38:02;;;;;;;4.70;4.30;;;29.80;90.30;;;;;;4994726;28;20612;-80
2021/07/27 09:40:28;;;;;;;5.23;4.13;;;29.40;90.90;;;;;;4995462;28;20202;-80
2021/07/27 09:42:54;;;;;;;4.77;4.27;;;29.20;91.40;;;;;;4996595;28;21148;-80
2021/07/27 09:45:20;;;;;;;4.47;3.30;;;28.80;92.00;;;;;;4995529;28;20179;-80
2021/07/27 09:47:48;;;;;;;3.80;3.40;;;28.70;92.70;;;;;;4994487;28;20175;-79
2021/07/27 09:50:17;;;;;;;5.70;4.87;;;28.60;93.30;;;;;;4977099;28;20734;-80
2021/07/27 09:52:44;;;;;;;5.53;4.07;;;28.50;93.60;;;;;;4994434;28;20579;-80
2021/07/27 09:55:13;;;;;;;4.77;3.47;;;28.30;93.70;;;;;;4995138;28;20711;-81
2021/07/27 09:57:40;;;;;;;3.87;3.10;;;28.00;93.90;;;;;;4977837;28;21059;-81
2021/07/27 10:00:07;;;;;;;5.43;4.10;;;27.80;94.20;;;;;;4995316;28;20632;-82
2021/07/27 10:02:39;;;;;;;4.60;4.20;;;27.60;94.20;;;;;;4975862;28;20586;-82
2021/07/27 10:05:08;;;;;;;5.80;3.90;;;27.40;94.20;;;;;;4955506;28;20934;-82
2021/07/27 10:07:34;;;;;;;4.20;3.60;;;27.30;94.90;;;;;;4976226;28;20681;-81
2021/07/27 10:10:11;;;;;;;4.40;4.03;;;27.30;95.70;;;;;;4989775;28;21052;-80
2021/07/27 10:12:37;;;;;;;4.33;3.60;;;27.40;96.10;;;;;;4959106;28;20598;-80
2021/07/27 10:15:11;;;;;;;4.13;3.83;;;27.50;96.40;;;;;;4974738;28;20610;-80
2021/07/27 10:17:54;;;;;;;5.10;3.33;;;27.60;96.60;;;;;;4957595;28;20599;-80
2021/07/27 10:20:28;;;;;;;3.37;3.07;;;27.60;96.90;;;;;;4974654;28;20956;-80
2021/07/27 10:22:54;;;;;;;4.00;3.30;;;27.70;96.90;;;;;;4972991;28;20646;-80
2021/07/27 10:25:24;;;;;;;4.37;3.97;;;27.80;96.90;;;;;;4974615;28;20893;-79
2021/07/27 10:27:54;;;;;;;8.80;5.63;;;27.90;96.90;;;;;;4975744;28;20878;-79
2021/07/27 10:30:31;;;;;;;4.40;3.47;;;28.00;96.30;;;;;;4958344;28;20614;-80
2021/07/27 10:32:57;;;;;;;4.60;4.00;;;28.00;96.40;;;;;;4975101;28;20575;-79
2021/07/27 10:35:27;;;;;;;4.40;4.00;;;28.10;96.50;;;;;;4957342;28;20619;-80
2021/07/27 10:37:54;;;;;;;3.63;3.30;;;28.20;96.30;;;;;;4973629;28;20583;-80
2021/07/27 10:40:30;;;;;;;4.20;3.57;;;28.20;95.60;;;;;;4976000;28;20599;-80
2021/07/27 10:42:56;;;;;;;3.57;3.27;;;28.20;95.20;;;;;;4977695;28;20567;-80
2021/07/27 10:45:22;;;;;;;4.93;4.53;;;28.20;95.10;;;;;;4958748;28;20575;-80
2021/07/27 10:47:49;;;;;;;4.60;4.20;;;28.30;95.40;;;;;;4975156;28;20568;-80
2021/07/27 10:50:16;;;;;;;4.33;3.93;;;28.50;95.00;;;;;;4958977;28;20611;-80
2021/07/27 10:52:48;;;;;;;3.77;3.47;;;28.70;95.30;;;;;;4975139;28;20614;-80
2021/07/27 10:55:15;;;;;;;5.40;3.47;;;29.20;95.30;;;;;;4958067;28;20627;-80
2021/07/27 10:57:47;;;;;;;5.00;3.50;;;29.90;96.00;;;;;;4968726;28;20696;-80
2021/07/27 11:00:13;;;;;;;6.17;3.30;;;30.50;94.40;;;;;;4945241;29;20615;-80
2021/07/27 11:02:39;;;;;;;3.70;2.40;;;31.10;94.20;;;;;;4955047;29;20557;-81
2021/07/27 11:05:06;;;;;;;3.07;2.77;;;31.50;93.00;;;;;;4951721;28;20606;-80
2021/07/27 11:07:35;;;;;;;5.17;3.07;;;32.00;92.30;;;;;;4956402;28;20680;-80
2021/07/27 11:10:03;;;;;;;3.13;2.93;;;32.40;91.10;;;;;;4986275;28;21107;-81
2021/07/27 11:12:41;;;;;;;3.30;3.00;;;32.80;90.20;;;;;;4958594;28;21149;-81
2021/07/27 11:15:14;;;;;;;4.10;3.30;;;33.00;88.00;;;;;;4957113;28;20629;-82
2021/07/27 11:17:43;;;;;;;4.97;3.20;;;33.10;85.00;;;;;;4972930;28;20579;-84
2021/07/27 11:20:09;;;;;;;2.80;2.60;;;33.30;83.70;;;;;;4956400;28;20625;-83
2021/07/27 11:22:36;;;;;;;3.10;2.80;;;33.60;83.40;;;;;;4973595;28;21203;-83
2021/07/27 11:25:02;;;;;;;3.83;3.43;;;33.80;83.50;;;;;;4973812;28;20949;-84
2021/07/27 11:27:32;;;;;;;4.47;4.17;;;34.00;81.60;;;;;;4972979;28;20580;-83
2021/07/27 11:30:00;;;;;;;4.27;3.87;;;34.10;78.90;;;;;;4973298;28;20798;-83
2021/07/27 11:32:37;;;;;;;3.93;3.63;;;34.10;77.60;;;;;;4955915;28;20587;-83
2021/07/27 11:35:03;;;;;;;4.30;4.00;;;34.00;76.20;;;;;;4973415;28;20623;-83
2021/07/27 11:37:29;;;;;;;4.23;3.83;;;33.90;77.20;;;;;;4972772;28;20575;-82
2021/07/27 11:39:56;;;;;;;5.50;5.07;;;33.90;75.90;;;;;;4955643;28;20651;-82
2021/07/27 11:42:32;;;;;;;3.67;3.33;;;33.80;75.90;;;;;;4955592;28;20262;-82
2021/07/27 11:45:04;;;;;;;3.80;3.50;;;33.70;74.90;;;;;;4973024;28;20991;-80
2021/07/27 11:47:43;;;;;;;4.47;4.07;;;33.70;75.40;;;;;;4972929;28;20569;-82
2021/07/27 11:50:29;;;;;;;5.10;3.20;;;33.60;72.60;;;;;;4955610;28;21192;-77
2021/07/27 11:52:57;;;;;;;3.63;2.80;;;33.50;73.70;;;;;;4973130;28;20889;-78
2021/07/27 11:55:33;;;;;;;4.10;3.80;;;33.50;74.70;;;;;;4972941;28;20619;-77
2021/07/27 11:58:00;;;;;;;3.63;3.27;;;33.60;74.10;;;;;;4954842;28;20569;-78
2021/07/27 12:00:26;;;;;;;4.10;3.80;;;33.70;73.90;;;;;;4974799;28;21360;-78
2021/07/27 12:02:53;;;;;;;4.40;3.40;;;33.70;72.50;;;;;;4971595;28;21165;-78
2021/07/27 12:05:19;;;;;;;3.67;3.27;;;33.70;72.20;;;;;;4983191;28;20973;-78
2021/07/27 12:07:45;;;;;;;5.20;3.40;;;33.60;71.50;;;;;;4990632;28;20636;-78
2021/07/27 12:10:11;;;;;;;4.13;3.07;;;33.60;71.40;;;;;;4991211;28;21027;-77
2021/07/27 12:12:42;;;;;;;4.23;3.53;;;33.50;70.60;;;;;;4992024;28;20622;-78
2021/07/27 12:15:13;;;;;;;4.13;3.80;;;33.40;70.00;;;;;;4970169;28;21357;-77
2021/07/27 12:17:43;;;;;;;4.90;4.37;;;33.30;69.60;;;;;;4972035;28;20571;-76
2021/07/27 12:20:11;;;;;;;4.00;3.70;;;33.20;69.70;;;;;;4972187;28;20988;-76
2021/07/27 12:22:37;;;;;;;4.47;3.40;;;33.20;70.00;;;;;;4971168;28;20619;-77
2021/07/27 12:25:04;;;;;;;3.23;2.93;;;33.20;69.50;;;;;;4954721;28;20569;-77
2021/07/27 12:27:31;;;;;;;3.73;3.40;;;33.20;69.50;;;;;;4955005;28;20637;-77
2021/07/27 12:29:56;;;;;;;5.27;2.97;;;33.20;69.30;;;;;;4972264;28;20611;-77
2021/07/27 12:32:22;;;;;;;3.27;2.87;;;33.20;69.40;;;;;;4972038;28;20576;-77
2021/07/27 12:34:48;;;;;;;2.63;2.43;;;33.20;68.90;;;;;;4971783;28;20204;-77
2021/07/27 12:37:14;;;;;;;3.77;3.47;;;33.20;68.60;;;;;;4954647;28;20537;-77
2021/07/27 12:39:39;;;;;;;4.17;3.50;;;33.20;68.50;;;;;;4954459;28;20923;-77
2021/07/27 12:42:05;;;;;;;4.63;4.03;;;33.10;67.60;;;;;;4972146;28;20614;-77
2021/07/27 12:44:31;;;;;;;4.20;3.13;;;33.10;67.30;;;;;;4954410;28;20213;-77
2021/07/27 12:46:57;;;;;;;4.87;4.40;;;33.00;67.00;;;;;;4971900;28;20601;-78
2021/07/27 12:49:23;;;;;;;5.77;3.40;;;32.90;66.60;;;;;;4971786;28;20607;-78
2021/07/27 12:51:49;;;;;;;5.27;4.00;;;32.90;66.40;;;;;;4954704;28;20591;-78
2021/07/27 12:54:14;;;;;;;3.33;3.03;;;32.80;66.50;;;;;;4971926;28;20211;-77
2021/07/27 12:56:40;;;;;;;3.50;3.20;;;32.80;66.30;;;;;;4971989;28;20531;-77
2021/07/27 12:59:07;;;;;;;3.63;3.03;;;32.80;66.60;;;;;;4971517;28;20667;-78
2021/07/27 13:01:33;;;;;;;2.97;2.43;;;32.80;66.70;;;;;;4972176;28;20269;-78
2021/07/27 13:04:03;;;;;;;8.83;3.10;;;32.80;66.80;;;;;;4971738;28;20619;-78
2021/07/27 13:06:30;;;;;;;3.80;3.00;;;32.80;66.40;;;;;;4976310;28;20563;-78
2021/07/27 13:08:59;;;;;;;3.57;3.10;;;32.90;67.20;;;;;;4954114;28;20595;-78
2021/07/27 13:11:25;;;;;;;6.70;2.70;;;33.00;67.10;;;;;;4982922;28;20620;-78
2021/07/27 13:13:51;;;;;;;4.47;3.20;;;33.10;66.60;;;;;;4986527;28;20627;-78